createdAt,value
2024-02-22T00:00:14.233Z,98308.22
2024-02-22T00:03:01.293Z,98298.13
2024-02-22T00:05:28.281Z,98295.53
2024-02-22T00:07:55.476Z,98294.91
2024-02-22T00:10:22.567Z,98291.13
2024-02-22T00:12:49.709Z,98294.91
2024-02-22T00:15:16.593Z,98302.13
2024-02-22T00:17:44.058Z,98294.28
2024-02-22T00:20:11.651Z,98298.69
2024-02-22T00:22:38.870Z,98290.91
2024-02-22T00:25:06.339Z,98285.66
2024-02-22T00:27:34.943Z,98275.91
2024-02-22T00:30:01.906Z,98271.72
2024-02-22T00:32:29.245Z,98267.75
2024-02-22T00:34:56.199Z,98265.63
2024-02-22T00:37:23.490Z,98265.63
2024-02-22T00:39:50.389Z,98257.97
2024-02-22T00:42:17.526Z,98250.16
2024-02-22T00:44:44.380Z,98244.91
2024-02-22T00:47:11.830Z,98241.75
2024-02-22T00:49:38.986Z,98239.19
2024-02-22T00:52:09.087Z,98230.91
2024-02-22T00:54:36.271Z,98227.50
2024-02-22T00:57:03.404Z,98221.13
2024-02-22T00:59:33.523Z,98206.38
2024-02-22T01:02:01.289Z,98198.44
2024-02-22T01:04:28.471Z,98193.69
2024-02-22T01:06:57.228Z,98191.84
2024-02-22T01:09:24.085Z,98188.44
2024-02-22T01:11:51.369Z,98187.59
2024-02-22T01:14:20.999Z,98177.47
2024-02-22T01:16:51.091Z,98176.03
2024-02-22T01:19:18.557Z,98175.41
2024-02-22T01:21:45.840Z,98165.28
2024-02-22T01:24:12.740Z,98166.50
2024-02-22T01:26:39.849Z,98151.59
2024-02-22T01:29:06.715Z,98145.38
2024-02-22T01:31:34.049Z,98145.25
2024-02-22T01:34:01.066Z,98142.34
2024-02-22T01:36:28.226Z,98133.81
2024-02-22T01:38:55.037Z,98133.19
2024-02-22T01:41:23.548Z,98130.88
2024-02-22T01:43:51.487Z,98125.75
2024-02-22T01:46:18.933Z,98125.75
2024-02-22T01:48:45.928Z,98120.38
2024-02-22T01:51:13.126Z,98113.56
2024-02-22T01:53:39.985Z,98111.09
2024-02-22T01:56:07.455Z,98094.78
2024-02-22T01:58:36.141Z,98093.94
2024-02-22T02:01:04.815Z,98088.34
2024-02-22T02:03:31.845Z,98089.28
2024-02-22T02:05:59.040Z,98091.38
2024-02-22T02:08:25.886Z,98079.78
2024-02-22T02:10:53.162Z,98076.72
2024-02-22T02:13:19.981Z,98071.97
2024-02-22T02:15:47.125Z,98067.94
2024-02-22T02:18:14.130Z,98066.72
2024-02-22T02:20:53.416Z,98066.84
2024-02-22T02:23:28.696Z,98069.91
2024-02-22T02:25:56.035Z,98077.34
2024-02-22T02:28:22.925Z,98075.59
2024-02-22T02:30:50.091Z,98085.25
2024-02-22T02:33:17.080Z,98082.47
2024-02-22T02:35:44.601Z,98075.13
2024-02-22T02:38:11.870Z,98078.78
2024-02-22T02:40:39.177Z,98066.59
2024-02-22T02:43:06.615Z,98069.16
2024-02-22T02:45:34.288Z,98065.97
2024-02-22T02:48:01.199Z,98061.59
2024-02-22T02:50:28.422Z,98056.25
2024-02-22T02:52:55.294Z,98052.06
2024-02-22T02:55:22.470Z,98047.81
2024-02-22T02:57:51.124Z,98036.09
2024-02-22T03:00:18.515Z,98041.72
2024-02-22T03:02:45.305Z,98035.63
2024-02-22T03:05:12.692Z,98037.56
2024-02-22T03:07:39.693Z,98032.09
2024-02-22T03:10:07.228Z,98033.28
2024-02-22T03:12:34.283Z,98030.13
2024-02-22T03:15:04.085Z,98023.66
2024-02-22T03:17:30.902Z,98022.31
2024-02-22T03:19:58.274Z,98025.25
2024-02-22T03:22:25.267Z,98019.16
2024-02-22T03:24:52.507Z,98021.97
2024-02-22T03:27:19.374Z,98008.28
2024-02-22T03:29:47.737Z,98005.72
2024-02-22T03:32:15.474Z,98007.31
2024-02-22T03:34:43.251Z,98003.91
2024-02-22T03:37:10.857Z,97991.34
2024-02-22T03:39:39.184Z,97995.84
2024-02-22T03:42:06.019Z,97990.59
2024-02-22T03:44:33.121Z,98000.34
2024-02-22T03:46:59.932Z,97994.97
2024-02-22T03:49:27.024Z,97993.28
2024-02-22T03:51:53.930Z,97988.28
2024-02-22T03:54:21.027Z,97985.97
2024-02-22T03:56:47.861Z,97987.69
2024-02-22T03:59:15.148Z,97987.81
2024-02-22T04:01:42.152Z,97978.63
2024-02-22T04:04:09.508Z,97981.19
2024-02-22T04:06:39.810Z,97990.47
2024-02-22T04:09:08.194Z,97982.78
2024-02-22T04:11:35.216Z,97985.72
2024-02-22T04:14:02.490Z,97985.25
2024-02-22T04:16:29.348Z,97980.47
2024-02-22T04:18:56.677Z,97986.94
2024-02-22T04:21:23.624Z,97983.53
2024-02-22T04:23:50.754Z,97973.88
2024-02-22T04:26:17.644Z,97971.69
2024-02-22T04:28:44.897Z,97970.22
2024-02-22T04:31:12.026Z,97969.00
2024-02-22T04:33:39.129Z,97962.88
2024-02-22T04:36:07.251Z,97959.00
2024-02-22T04:38:34.650Z,97965.22
2024-02-22T04:41:01.677Z,97958.88
2024-02-22T04:43:28.795Z,97948.25
2024-02-22T04:45:56.275Z,97957.75
2024-02-22T04:48:23.560Z,97967.16
2024-02-22T04:50:50.438Z,97952.72
2024-02-22T04:53:17.817Z,97957.88
2024-02-22T04:55:44.716Z,97954.09
2024-02-22T04:58:12.139Z,97944.19
2024-02-22T05:00:40.207Z,97942.50
2024-02-22T05:03:07.313Z,97932.25
2024-02-22T05:05:34.318Z,97932.63
2024-02-22T05:08:02.682Z,97939.19
2024-02-22T05:10:31.211Z,97932.25
2024-02-22T05:12:58.547Z,97938.13
2024-02-22T05:15:25.317Z,97930.16
2024-02-22T05:17:52.517Z,97917.34
2024-02-22T05:20:19.402Z,97917.34
2024-02-22T05:22:46.822Z,97910.13
2024-02-22T05:25:13.657Z,97909.06
2024-02-22T05:27:41.286Z,97903.44
2024-02-22T05:30:08.741Z,97899.28
2024-02-22T05:32:35.909Z,97894.78
2024-02-22T05:35:02.865Z,97893.19
2024-02-22T05:37:31.598Z,97885.72
2024-02-22T05:40:00.154Z,97878.66
2024-02-22T05:42:27.387Z,97881.13
2024-02-22T05:44:54.243Z,97877.06
2024-02-22T05:47:21.481Z,97871.19
2024-02-22T05:49:49.232Z,97862.28
2024-02-22T05:52:16.410Z,97865.97
2024-02-22T05:54:43.205Z,97868.53
2024-02-22T05:57:12.616Z,97863.66
2024-02-22T05:59:40.379Z,97869.63
2024-02-22T06:02:07.533Z,97861.56
2024-02-22T06:04:34.530Z,97856.78
2024-02-22T06:07:01.782Z,97852.53
2024-02-22T06:09:28.649Z,97849.13
2024-02-22T06:11:55.886Z,97848.38
2024-02-22T06:14:22.847Z,97843.63
2024-02-22T06:16:50.578Z,97840.53
2024-02-22T06:19:17.533Z,97835.56
2024-02-22T06:21:44.782Z,97827.38
2024-02-22T06:24:11.619Z,97821.16
2024-02-22T06:26:39.210Z,97834.53
2024-02-22T06:29:06.186Z,97844.56
2024-02-22T06:31:33.571Z,97838.19
2024-02-22T06:34:01.781Z,97837.97
2024-02-22T06:36:29.529Z,97832.59
2024-02-22T06:38:56.396Z,97835.16
2024-02-22T06:41:23.627Z,97831.25
2024-02-22T06:43:50.449Z,97826.47
2024-02-22T06:46:18.866Z,97816.84
2024-02-22T06:48:46.772Z,97814.91
2024-02-22T06:51:14.136Z,97820.00
2024-02-22T06:53:41.167Z,97814.13
2024-02-22T06:56:08.818Z,97817.28
2024-02-22T06:58:36.262Z,97816.69
2024-02-22T07:01:03.659Z,97815.41
2024-02-22T07:03:30.562Z,97814.38
2024-02-22T07:05:57.699Z,97804.91
2024-02-22T07:08:24.968Z,97799.28
2024-02-22T07:10:52.266Z,97799.59
2024-02-22T07:13:19.201Z,97789.00
2024-02-22T07:15:46.297Z,97799.03
2024-02-22T07:18:13.260Z,97785.63
2024-02-22T07:20:40.480Z,97785.75
2024-02-22T07:23:07.397Z,97782.81
2024-02-22T07:25:34.604Z,97774.03
2024-02-22T07:28:01.481Z,97782.69
2024-02-22T07:30:28.862Z,97778.31
2024-02-22T07:32:55.930Z,97774.63
2024-02-22T07:35:24.305Z,97771.09
2024-02-22T07:37:51.226Z,97773.53
2024-02-22T07:40:18.408Z,97767.03
2024-02-22T07:42:45.273Z,97762.38
2024-02-22T07:45:12.530Z,97757.47
2024-02-22T07:47:40.553Z,97760.41
2024-02-22T07:50:12.276Z,97758.78
2024-02-22T07:52:40.906Z,97757.63
2024-02-22T07:55:08.916Z,97752.56
2024-02-22T07:57:36.706Z,97759.09
2024-02-22T08:00:04.837Z,97750.75
2024-02-22T08:02:31.780Z,97746.81
2024-02-22T08:04:59.575Z,97735.94
2024-02-22T08:07:26.555Z,97733.25
2024-02-22T08:09:53.706Z,97733.41
2024-02-22T08:12:20.687Z,97728.88
2024-02-22T08:14:48.833Z,97722.53
2024-02-22T08:17:18.972Z,97719.19
2024-02-22T08:19:48.931Z,97715.75
2024-02-22T08:22:17.066Z,97709.00
2024-02-22T08:24:44.221Z,97705.44
2024-02-22T08:27:11.611Z,97697.38
2024-02-22T08:29:38.728Z,97697.22
2024-02-22T08:32:07.016Z,97696.84
2024-02-22T08:34:34.285Z,97678.97
2024-02-22T08:37:01.295Z,97672.31
2024-02-22T08:39:28.459Z,97666.72
2024-02-22T08:41:55.240Z,97669.00
2024-02-22T08:44:22.763Z,97661.19
2024-02-22T08:46:49.676Z,97657.09
2024-02-22T08:49:17.474Z,97640.94
2024-02-22T08:51:44.329Z,97651.72
2024-02-22T08:54:11.501Z,97633.31
2024-02-22T08:56:38.369Z,97627.53
2024-02-22T08:59:05.852Z,97628.94
2024-02-22T09:01:35.492Z,97627.25
2024-02-22T09:04:02.860Z,97632.63
2024-02-22T09:06:29.823Z,97630.50
2024-02-22T09:08:57.564Z,97634.59
2024-02-22T09:11:25.431Z,97629.09
2024-02-22T09:13:52.712Z,97631.50
2024-02-22T09:16:19.758Z,97620.44
2024-02-22T09:18:46.946Z,97613.91
2024-02-22T09:21:15.471Z,97625.53
2024-02-22T09:23:45.941Z,97612.66
2024-02-22T09:26:14.740Z,97612.47
2024-02-22T09:28:42.364Z,97600.16
2024-02-22T09:31:09.190Z,97596.34
2024-02-22T09:33:36.354Z,97590.00
2024-02-22T09:36:03.746Z,97580.75
2024-02-22T09:38:35.296Z,97570.44
2024-02-22T09:41:02.816Z,97575.63
2024-02-22T09:43:30.285Z,97581.03
2024-02-22T09:45:57.103Z,97575.06
2024-02-22T09:48:24.448Z,97564.00
2024-02-22T09:50:51.429Z,97566.84
2024-02-22T09:53:19.808Z,97567.25
2024-02-22T09:55:46.897Z,97566.28
2024-02-22T09:58:16.111Z,97565.53
2024-02-22T10:00:43.080Z,97569.47
2024-02-22T10:03:11.528Z,97579.13
2024-02-22T10:05:39.134Z,97568.75
2024-02-22T10:08:13.398Z,97565.78
2024-02-22T10:10:41.741Z,97564.66
2024-02-22T10:13:18.820Z,97559.94
2024-02-22T10:15:46.732Z,97559.66
2024-02-22T10:18:13.925Z,97561.03
2024-02-22T10:20:44.052Z,97551.38
2024-02-22T10:23:12.852Z,97555.91
2024-02-22T10:25:41.016Z,97546.69
2024-02-22T10:28:09.526Z,97546.53
2024-02-22T10:30:36.543Z,97546.94
2024-02-22T10:33:04.093Z,97529.06
2024-02-22T10:35:31.685Z,97524.53
2024-02-22T10:37:58.969Z,97513.13
2024-02-22T10:40:27.453Z,97515.69
2024-02-22T10:42:54.720Z,97516.38
2024-02-22T10:45:22.752Z,97521.84
2024-02-22T10:47:52.914Z,97521.72
2024-02-22T10:50:23.265Z,97528.81
2024-02-22T10:52:53.241Z,97518.41
2024-02-22T10:55:20.123Z,97501.06
2024-02-22T10:57:49.204Z,97496.41
2024-02-22T11:00:16.607Z,97489.00
2024-02-22T11:02:47.162Z,97474.56
2024-02-22T11:05:14.309Z,97470.88
2024-02-22T11:07:49.535Z,97473.28
2024-02-22T11:10:16.380Z,97469.19
2024-02-22T11:12:46.757Z,97471.72
2024-02-22T11:15:15.468Z,97474.34
2024-02-22T11:17:56.891Z,97469.63
2024-02-22T11:20:36.279Z,97465.66
2024-02-22T11:23:14.049Z,97466.03
2024-02-22T11:25:41.198Z,97460.00
2024-02-22T11:28:09.534Z,97450.50
2024-02-22T11:30:36.326Z,97456.69
2024-02-22T11:33:03.821Z,97455.25
2024-02-22T11:35:30.934Z,97444.22
2024-02-22T11:37:59.326Z,97435.25
2024-02-22T11:40:27.631Z,97422.47
2024-02-22T11:42:56.371Z,97426.03
2024-02-22T11:45:23.263Z,97417.63
2024-02-22T11:47:50.461Z,97417.97
2024-02-22T11:50:17.661Z,97405.00
2024-02-22T11:52:51.281Z,97401.19
2024-02-22T11:55:18.320Z,97395.44
2024-02-22T11:57:45.599Z,97383.78
2024-02-22T12:00:12.640Z,97375.16
2024-02-22T12:02:39.950Z,97387.97
2024-02-22T12:05:08.177Z,97389.56
2024-02-22T12:07:35.360Z,97386.69
2024-02-22T12:10:02.225Z,97388.75
2024-02-22T12:12:29.470Z,97393.59
2024-02-22T12:15:00.018Z,97399.72
2024-02-22T12:17:27.663Z,97399.50
2024-02-22T12:19:55.695Z,97385.19
2024-02-22T12:22:23.450Z,97382.34
2024-02-22T12:24:50.634Z,97388.06
2024-02-22T12:27:20.818Z,97386.53
2024-02-22T12:29:51.380Z,97380.81
2024-02-22T12:32:20.242Z,97373.41
2024-02-22T12:34:47.178Z,97365.47
2024-02-22T12:37:15.433Z,97356.72
2024-02-22T12:39:42.406Z,97361.59
2024-02-22T12:42:09.788Z,97360.06
2024-02-22T12:44:36.658Z,97352.31
2024-02-22T12:47:05.436Z,97355.69
2024-02-22T12:49:34.249Z,97353.88
2024-02-22T12:52:01.810Z,97346.75
2024-02-22T12:54:28.818Z,97347.59
2024-02-22T12:56:56.056Z,97347.75
2024-02-22T12:59:23.154Z,97351.13
2024-02-22T13:01:51.035Z,97343.34
2024-02-22T13:04:18.144Z,97347.59
2024-02-22T13:06:45.332Z,97340.34
2024-02-22T13:09:12.705Z,97341.03
2024-02-22T13:11:40.366Z,97334.78
2024-02-22T13:14:07.627Z,97328.56
2024-02-22T13:16:35.972Z,97331.94
2024-02-22T13:19:03.174Z,97326.84
2024-02-22T13:21:30.363Z,97323.84
2024-02-22T13:23:57.265Z,97321.47
2024-02-22T13:26:24.694Z,97316.06
2024-02-22T13:28:52.046Z,97316.22
2024-02-22T13:31:20.859Z,97309.34
2024-02-22T13:33:49.378Z,97302.41
2024-02-22T13:36:17.350Z,97302.25
2024-02-22T13:38:44.338Z,97296.50
2024-02-22T13:41:13.413Z,97287.56
2024-02-22T13:43:41.840Z,97286.88
2024-02-22T13:46:09.081Z,97275.97
2024-02-22T13:48:37.839Z,97275.22
2024-02-22T13:51:05.872Z,97263.22
2024-02-22T13:53:32.954Z,97266.75
2024-02-22T13:56:00.459Z,97265.44
2024-02-22T13:58:27.446Z,97249.22
2024-02-22T14:00:54.680Z,97244.31
2024-02-22T14:03:21.659Z,97242.63
2024-02-22T14:05:52.761Z,97234.94
2024-02-22T14:08:22.007Z,97230.78
2024-02-22T14:10:49.775Z,97221.03
2024-02-22T14:13:18.099Z,97220.47
2024-02-22T14:15:47.499Z,97217.09
2024-02-22T14:18:14.377Z,97217.09
2024-02-22T14:20:43.564Z,97216.09
2024-02-22T14:23:13.857Z,97207.00
2024-02-22T14:25:44.663Z,97204.63
2024-02-22T14:28:11.552Z,97212.72
2024-02-22T14:30:38.732Z,97207.94
2024-02-22T14:33:05.993Z,97210.94
2024-02-22T14:35:33.237Z,97199.44
2024-02-22T14:38:00.313Z,97200.59
2024-02-22T14:40:27.518Z,97191.69
2024-02-22T14:42:54.435Z,97189.63
2024-02-22T14:45:21.900Z,97178.31
2024-02-22T14:47:48.784Z,97190.13
2024-02-22T14:50:17.914Z,97182.50
2024-02-22T14:52:44.823Z,97172.91
2024-02-22T14:55:12.461Z,97173.06
2024-02-22T14:57:39.360Z,97176.25
2024-02-22T15:00:10.053Z,97163.94
2024-02-22T15:02:37.511Z,97159.69
2024-02-22T15:05:05.486Z,97155.63
2024-02-22T15:07:32.485Z,97150.56
2024-02-22T15:09:59.629Z,97145.31
2024-02-22T15:12:26.465Z,97137.53
2024-02-22T15:14:53.937Z,97125.56
2024-02-22T15:17:24.000Z,97124.03
2024-02-22T15:19:51.648Z,97116.25
2024-02-22T15:22:18.906Z,97109.34
2024-02-22T15:24:46.384Z,97111.38
2024-02-22T15:27:13.294Z,97104.28
2024-02-22T15:29:40.560Z,97097.34
2024-02-22T15:32:07.815Z,97103.94
2024-02-22T15:34:35.684Z,97102.06
2024-02-22T15:37:03.224Z,97100.88
2024-02-22T15:39:30.415Z,97098.50
2024-02-22T15:41:57.261Z,97093.28
2024-02-22T15:44:25.014Z,97076.91
2024-02-22T15:46:52.054Z,97078.94
2024-02-22T15:49:19.440Z,97071.53
2024-02-22T15:51:46.377Z,97063.78
2024-02-22T15:54:14.144Z,97072.50
2024-02-22T15:56:41.227Z,97070.66
2024-02-22T15:59:08.677Z,97064.59
2024-02-22T16:01:35.611Z,97058.88
2024-02-22T16:04:04.471Z,97062.91
2024-02-22T16:06:32.632Z,97053.63
2024-02-22T16:09:00.373Z,97052.41
2024-02-22T16:11:27.791Z,97043.31
2024-02-22T16:13:59.183Z,97031.00
2024-02-22T16:16:26.396Z,97030.13
2024-02-22T16:18:59.491Z,97024.44
2024-02-22T16:21:26.628Z,97032.31
2024-02-22T16:23:55.909Z,97028.63
2024-02-22T16:26:23.322Z,97024.38
2024-02-22T16:28:50.592Z,97013.44
2024-02-22T16:31:17.619Z,97024.56
2024-02-22T16:33:46.179Z,97027.25
2024-02-22T16:36:13.842Z,97031.59
2024-02-22T16:38:49.372Z,97025.34
2024-02-22T16:41:28.056Z,97031.25
2024-02-22T16:43:55.656Z,97027.53
2024-02-22T16:46:22.741Z,97021.16
2024-02-22T16:48:50.096Z,97017.47
2024-02-22T16:51:19.764Z,97014.06
2024-02-22T16:53:49.746Z,97007.63
2024-02-22T16:56:17.366Z,97007.63
2024-02-22T16:58:44.763Z,97007.63
2024-02-22T17:01:11.846Z,96994.31
2024-02-22T17:03:39.270Z,96990.63
2024-02-22T17:06:06.394Z,96994.81
2024-02-22T17:08:33.678Z,96984.38
2024-02-22T17:11:00.933Z,96985.56
2024-02-22T17:13:31.257Z,96978.31
2024-02-22T17:15:59.391Z,96976.97
2024-02-22T17:18:28.236Z,96984.38
2024-02-22T17:20:56.499Z,96973.25
2024-02-22T17:23:24.269Z,96973.72
2024-02-22T17:25:51.513Z,96978.78
2024-02-22T17:28:20.057Z,96969.69
2024-02-22T17:30:47.043Z,96964.63
2024-02-22T17:33:15.028Z,96964.94
2024-02-22T17:35:42.014Z,96964.25
2024-02-22T17:38:11.246Z,96959.84
2024-02-22T17:40:38.364Z,96954.63
2024-02-22T17:43:06.038Z,96961.88
2024-02-22T17:45:32.939Z,96962.53
2024-02-22T17:48:02.190Z,96959.19
2024-02-22T17:50:29.382Z,96952.44
2024-02-22T17:52:56.556Z,96941.13
2024-02-22T17:55:24.541Z,96948.72
2024-02-22T17:57:52.046Z,96941.63
2024-02-22T18:00:25.390Z,96941.63
2024-02-22T18:03:03.067Z,96942.59
2024-02-22T18:05:32.401Z,96924.81
2024-02-22T18:08:03.665Z,96934.16
2024-02-22T18:10:31.062Z,96929.28
2024-02-22T18:12:58.326Z,96923.25
2024-02-22T18:15:31.251Z,96911.28
2024-02-22T18:17:59.526Z,96910.28
2024-02-22T18:20:32.138Z,96910.44
2024-02-22T18:22:59.749Z,96898.97
2024-02-22T18:25:27.239Z,96892.06
2024-02-22T18:27:55.784Z,96887.53
2024-02-22T18:30:23.773Z,96897.63
2024-02-22T18:32:51.813Z,96887.69
2024-02-22T18:35:18.819Z,96894.75
2024-02-22T18:37:46.270Z,96883.69
2024-02-22T18:40:13.407Z,96893.38
2024-02-22T18:42:41.356Z,96878.78
2024-02-22T18:45:08.615Z,96880.28
2024-02-22T18:47:35.938Z,96881.09
2024-02-22T18:50:04.996Z,96870.03
2024-02-22T18:52:34.525Z,96866.63
2024-02-22T18:55:02.180Z,96859.41
2024-02-22T18:57:29.532Z,96856.72
2024-02-22T18:59:56.397Z,96858.56
2024-02-22T19:02:25.163Z,96855.50
2024-02-22T19:04:52.034Z,96858.75
2024-02-22T19:07:21.762Z,96853.69
2024-02-22T19:09:49.348Z,96842.78
2024-02-22T19:12:16.630Z,96836.69
2024-02-22T19:14:43.530Z,96849.47
2024-02-22T19:17:12.199Z,96831.44
2024-02-22T19:19:40.145Z,96833.97
2024-02-22T19:22:09.198Z,96832.63
2024-02-22T19:24:36.138Z,96838.00
2024-02-22T19:27:04.801Z,96822.03
2024-02-22T19:29:32.010Z,96821.84
2024-02-22T19:32:00.202Z,96827.88
2024-02-22T19:34:28.096Z,96816.63
2024-02-22T19:36:55.314Z,96812.75
2024-02-22T19:39:22.698Z,96806.34
2024-02-22T19:41:50.867Z,96803.81
2024-02-22T19:44:19.927Z,96806.03
2024-02-22T19:46:47.267Z,96804.19
2024-02-22T19:49:14.329Z,96796.97
2024-02-22T19:51:42.685Z,96787.34
2024-02-22T19:54:21.003Z,96793.59
2024-02-22T19:56:49.459Z,96790.88
2024-02-22T19:59:16.300Z,96783.00
2024-02-22T20:01:44.690Z,96780.31
2024-02-22T20:04:11.905Z,96783.31
2024-02-22T20:06:43.630Z,96771.53
2024-02-22T20:09:10.942Z,96761.59
2024-02-22T20:11:41.284Z,96758.03
2024-02-22T20:14:09.096Z,96759.75
2024-02-22T20:16:36.978Z,96758.03
2024-02-22T20:19:03.959Z,96754.53
2024-02-22T20:21:33.326Z,96747.47
2024-02-22T20:24:02.908Z,96747.28
2024-02-22T20:26:30.678Z,96742.94
2024-02-22T20:28:57.626Z,96743.78
2024-02-22T20:31:24.827Z,96743.44
2024-02-22T20:33:52.447Z,96746.28
2024-02-22T20:36:20.736Z,96757.25
2024-02-22T20:38:47.777Z,96755.53
2024-02-22T20:41:16.868Z,96764.66
2024-02-22T20:43:44.010Z,96769.88
2024-02-22T20:46:11.316Z,96762.28
2024-02-22T20:48:42.258Z,96769.00
2024-02-22T20:51:09.473Z,96773.03
2024-02-22T20:53:37.973Z,96790.22
2024-02-22T20:56:05.604Z,96795.38
2024-02-22T20:58:32.661Z,96785.84
2024-02-22T21:01:00.417Z,96785.69
2024-02-22T21:03:29.017Z,96793.06
2024-02-22T21:06:00.186Z,96797.75
2024-02-22T21:08:27.954Z,96795.44
2024-02-22T21:10:58.947Z,96791.75
2024-02-22T21:13:25.924Z,96786.00
2024-02-22T21:15:53.627Z,96784.97
2024-02-22T21:18:20.724Z,96791.91
2024-02-22T21:20:48.462Z,96792.41
2024-02-22T21:23:15.377Z,96797.28
2024-02-22T21:25:44.318Z,96796.13
2024-02-22T21:28:11.945Z,96787.53
2024-02-22T21:30:39.195Z,96796.28
2024-02-22T21:33:06.293Z,96803.50
2024-02-22T21:35:33.600Z,96804.53
2024-02-22T21:38:05.805Z,96801.88
2024-02-22T21:40:44.496Z,96798.69
2024-02-22T21:43:11.382Z,96793.13
2024-02-22T21:45:38.694Z,96789.28
2024-02-22T21:48:10.728Z,96787.75
2024-02-22T21:50:38.888Z,96785.72
2024-02-22T21:53:08.224Z,96788.97
2024-02-22T21:55:35.658Z,96789.13
2024-02-22T21:58:02.500Z,96780.53
2024-02-22T22:00:29.623Z,96768.25
2024-02-22T22:02:56.507Z,96754.44
2024-02-22T22:05:23.914Z,96765.56
2024-02-22T22:07:51.448Z,96761.00
2024-02-22T22:10:18.675Z,96762.88
2024-02-22T22:12:45.532Z,96767.22
2024-02-22T22:15:12.670Z,96767.59
2024-02-22T22:17:42.415Z,96774.47
2024-02-22T22:20:11.203Z,96774.97
2024-02-22T22:22:38.017Z,96776.00
2024-02-22T22:25:06.052Z,96772.63
2024-02-22T22:27:32.906Z,96769.28
2024-02-22T22:30:00.021Z,96770.31
2024-02-22T22:32:27.044Z,96774.34
2024-02-22T22:34:54.518Z,96770.16
2024-02-22T22:37:22.892Z,96766.13
2024-02-22T22:39:50.123Z,96761.25
2024-02-22T22:42:16.970Z,96769.16
2024-02-22T22:44:44.206Z,96770.00
2024-02-22T22:47:11.262Z,96768.84
2024-02-22T22:49:39.012Z,96773.72
2024-02-22T22:52:06.116Z,96774.38
2024-02-22T22:54:33.743Z,96769.50
2024-02-22T22:57:00.688Z,96771.97
2024-02-22T22:59:28.045Z,96761.53
2024-02-22T23:01:58.565Z,96762.22
2024-02-22T23:04:26.161Z,96769.50
2024-02-22T23:06:53.406Z,96762.25
2024-02-22T23:09:21.513Z,96762.09
2024-02-22T23:11:48.434Z,96762.75
2024-02-22T23:14:15.705Z,96768.28
2024-02-22T23:16:42.785Z,96769.59
2024-02-22T23:19:10.301Z,96767.25
2024-02-22T23:21:37.681Z,96768.59
2024-02-22T23:24:06.950Z,96768.28
2024-02-22T23:26:33.978Z,96760.69
2024-02-22T23:29:01.372Z,96758.16
2024-02-22T23:31:31.074Z,96757.34
2024-02-22T23:33:58.432Z,96751.84
2024-02-22T23:36:25.481Z,96744.59
2024-02-22T23:38:52.578Z,96735.63
2024-02-22T23:41:25.501Z,96742.00
2024-02-22T23:44:01.115Z,96741.81
2024-02-22T23:46:28.570Z,96737.97
2024-02-22T23:48:57.051Z,96733.25
2024-02-22T23:51:24.117Z,96735.28
2024-02-22T23:53:51.356Z,96739.66
2024-02-22T23:56:18.252Z,96736.31
2024-02-22T23:58:45.725Z,96742.53
